Date,TemperatureHighF,TemperatureAvgF,TemperatureLowF,DewpointHighF,DewpointAvgF,DewpointLowF,HumidityHigh,HumidityAvg,HumidityLow,PressureMaxIn,PressureMinIn,WindSpeedMaxMPH,WindSpeedAvgMPH,GustSpeedMaxMPH,PrecipitationSumIn
2013-6-1,92.7,72.7,56.0,59.2,50.5,45.9,75,50,21,29.76,29.60,0,0,0,0.00
2013-6-2,81.4,66.7,55.6,57.8,52.2,47.6,76,61,43,29.62,29.50,0,0,0,0.00
2013-6-3,80.3,64.2,54.4,58.2,51.9,47.0,77,65,46,29.67,29.54,0,0,0,0.00
2013-6-4,76.9,64.2,55.8,58.2,52.5,48.3,77,67,50,29.78,29.66,0,0,0,0.00
2013-6-5,66.6,57.6,54.7,55.3,49.8,47.4,77,75,65,29.80,29.77,0,0,0,0.00
2013-6-8,85.9,76.9,62.3,63.6,58.7,53.1,73,54,44,29.62,29.53,0,0,0,0.00
2013-6-9,77.8,65.6,57.4,60.6,54.3,49.3,76,68,52,29.70,29.61,0,0,0,0.00
2013-6-10,72.2,62.8,55.3,55.5,51.6,48.2,77,67,54,29.75,29.64,0,0,0,0.00
2013-6-11,72.2,62.7,55.8,57.8,52.4,48.3,77,70,56,29.79,29.72,0,0,0,0.00
2013-6-12,76.9,64.2,53.1,54.6,46.3,39.7,77,55,29,29.83,29.72,0,0,0,0.00
2013-6-13,78.1,64.1,49.3,53.7,45.1,39.2,73,52,26,29.90,29.81,0,0,0,0.00
2013-6-14,85.3,69.8,55.3,53.9,45.4,40.2,73,46,23,29.81,29.65,0,0,0,0.00
2013-6-15,74.3,62.1,52.2,55.2,48.5,43.3,77,62,43,29.83,29.65,0,0,0,0.00
2013-6-16,76.0,64.0,52.4,54.2,49.6,44.7,76,61,44,29.91,29.82,0,0,0,0.00
2013-6-17,70.2,62.0,53.6,56.3,51.5,45.9,76,69,60,29.92,29.85,0,0,0,0.00
2013-6-18,66.2,59.5,53.3,52.5,49.3,45.5,77,69,58,29.87,29.82,0,0,0,0.00
2013-6-19,70.9,61.0,53.1,51.2,47.1,43.3,77,62,44,29.87,29.82,0,0,0,0.00
2013-6-20,77.6,62.8,50.9,53.7,46.0,42.3,74,56,30,29.83,29.77,0,0,0,0.00
2013-6-21,83.3,65.9,52.2,56.7,47.3,41.2,76,54,24,29.79,29.74,0,0,0,0.00
2013-6-22,86.8,67.8,54.7,59.6,50.1,44.6,77,56,25,29.76,29.67,0,0,0,0.00
2013-6-23,73.4,64.5,57.6,61.4,55.2,46.2,77,72,64,29.71,29.63,0,0,0,0.00
2013-6-24,67.5,63.3,59.6,59.7,53.3,45.5,76,70,56,29.72,29.61,0,0,0,0.03
2013-6-25,75.6,68.1,62.3,65.5,59.3,51.4,76,74,66,29.80,29.69,0,0,0,0.02
2013-6-26,84.2,71.0,62.5,66.5,58.3,46.6,75,65,52,29.87,29.78,0,0,0,0.00
2013-6-27,87.5,74.0,61.2,65.4,57.5,49.2,76,58,37,29.90,29.84,0,0,0,0.00
2013-6-28,98.3,79.4,62.8,66.2,57.4,47.7,74,51,24,29.86,29.73,0,0,0,0.00
2013-6-29,97.9,78.0,66.4,65.3,55.7,48.5,65,48,26,29.76,29.64,0,0,0,0.00
2013-6-30,90.7,76.2,64.1,63.4,56.2,50.4,74,52,30,29.68,29.61,0,0,0,0.00